Time;durP1;ratioP1;P1;durP2;ratioP2;P2;SDS_P1;SDS_P2;PMS_P1;PMS_P2;Temp;Humidity;BMP_temperature;BMP_pressure;BME280_temperature;BME280_humidity;BME280_pressure;Samples;Min_cycle;Max_cycle;Signal;HPM_P1;HPM_P2
2021/06/29 00:00:59;;;;;;;12.27;9.43;;;;;;;28.28;42.80;100762.56;5055216;28;20484;-45
2021/06/29 00:03:26;;;;;;;12.30;8.70;;;;;;;28.36;42.63;100757.91;5053589;28;20935;-48
2021/06/29 00:05:54;;;;;;;18.53;11.60;;;;;;;28.28;43.01;100751.97;5055046;28;20466;-45
2021/06/29 00:08:21;;;;;;;11.80;8.37;;;;;;;28.14;43.17;100758.53;5053748;28;20909;-43
2021/06/29 00:10:50;;;;;;;13.67;9.83;;;;;;;27.98;43.77;100757.28;5055160;28;20476;-46
2021/06/29 00:13:20;;;;;;;14.10;9.60;;;;;;;28.02;43.48;100758.94;5053742;28;20490;-43
2021/06/29 00:15:48;;;;;;;13.70;10.70;;;;;;;28.17;42.83;100755.81;5054927;28;20510;-44
2021/06/29 00:18:15;;;;;;;16.73;9.97;;;;;;;28.32;42.31;100758.91;5053719;28;20487;-49
2021/06/29 00:20:43;;;;;;;16.90;9.73;;;;;;;28.28;42.84;100749.31;5054948;28;20479;-46
2021/06/29 00:23:11;;;;;;;12.03;9.53;;;;;;;28.25;42.66;100752.06;5053706;28;20474;-46
2021/06/29 00:25:38;;;;;;;12.20;9.50;;;;;;;28.25;42.74;100744.13;5054901;28;20459;-46
2021/06/29 00:28:07;;;;;;;14.03;9.60;;;;;;;28.08;43.31;100742.84;5053576;28;20479;-45
2021/06/29 00:30:35;;;;;;;12.20;8.90;;;;;;;27.81;44.29;100742.78;5054973;28;20483;-45
2021/06/29 00:33:03;;;;;;;14.10;10.20;;;;;;;27.79;44.34;100742.00;5053552;28;20479;-46
2021/06/29 00:35:31;;;;;;;12.97;9.57;;;;;;;27.85;44.20;100744.44;5054172;28;20550;-45
2021/06/29 00:37:58;;;;;;;30.13;21.10;;;;;;;28.10;44.09;100737.50;5053613;28;20751;-46
2021/06/29 00:40:26;;;;;;;29.60;22.00;;;;;;;28.15;43.53;100744.38;5054836;28;20929;-45
2021/06/29 00:42:54;;;;;;;11.17;8.27;;;;;;;27.73;44.38;100760.72;5053428;28;20820;-44
2021/06/29 00:45:23;;;;;;;11.27;9.00;;;;;;;27.46;45.02;100758.81;5054638;28;20456;-46
2021/06/29 00:47:50;;;;;;;10.20;8.70;;;;;;;27.86;43.37;100756.78;5053294;28;20559;-45
2021/06/29 00:50:18;;;;;;;16.40;10.97;;;;;;;27.99;43.44;100754.59;5054973;28;20483;-44
2021/06/29 00:52:45;;;;;;;29.03;19.23;;;;;;;27.90;44.01;100758.41;5053517;28;20822;-45
2021/06/29 00:55:14;;;;;;;12.60;9.10;;;;;;;27.49;44.71;100763.16;5054773;28;20455;-46
2021/06/29 00:57:43;;;;;;;16.10;12.70;;;;;;;27.70;44.21;100758.16;5055796;28;20479;-45
2021/06/29 01:00:13;;;;;;;13.80;9.33;;;;;;;27.86;43.67;100763.84;5058631;28;20479;-44
2021/06/29 01:02:42;;;;;;;12.30;9.23;;;;;;;27.94;43.49;100755.66;5054475;28;20804;-47
2021/06/29 01:05:10;;;;;;;17.73;13.13;;;;;;;27.95;43.75;100760.06;5058463;28;20460;-46
2021/06/29 01:07:38;;;;;;;14.63;10.33;;;;;;;28.12;43.31;100752.44;5056925;28;20501;-47
2021/06/29 01:10:07;;;;;;;13.80;10.03;;;;;;;28.07;43.34;100758.78;5058474;28;20501;-48
2021/06/29 01:12:35;;;;;;;12.00;9.60;;;;;;;27.81;43.82;100747.22;5057025;28;20586;-47
2021/06/29 01:15:04;;;;;;;12.90;9.00;;;;;;;27.60;44.53;100750.50;5058394;28;20550;-44
2021/06/29 01:17:32;;;;;;;14.10;10.70;;;;;;;27.66;44.85;100749.44;5056860;28;20483;-46
2021/06/29 01:20:08;;;;;;;13.07;10.00;;;;;;;27.73;44.40;100743.03;5058336;28;20482;-44
2021/06/29 01:22:35;;;;;;;14.87;10.87;;;;;;;27.85;43.85;100730.31;5056982;28;20483;-48
2021/06/29 01:25:04;;;;;;;12.47;9.10;;;;;;;27.86;44.18;100740.88;5058095;28;20764;-47
2021/06/29 01:27:45;;;;;;;16.30;10.60;;;;;;;27.69;44.67;100733.41;5056547;28;20474;-43
2021/06/29 01:32:59;;;;;;;17.40;10.03;;;;;;;27.69;44.36;100727.28;5056298;28;20506;-44
2021/06/29 01:35:28;;;;;;;17.37;10.67;;;;;;;27.79;44.12;100726.09;5057556;28;20471;-47
2021/06/29 01:37:56;;;;;;;12.03;10.03;;;;;;;27.77;44.55;100727.91;5056650;28;20487;-44
2021/06/29 01:40:26;;;;;;;20.00;9.77;;;;;;;27.47;45.37;100722.56;5058009;28;20483;-48
2021/06/29 01:42:56;;;;;;;13.27;10.47;;;;;;;27.49;45.27;100721.63;5056524;28;20479;-43
2021/06/29 01:45:27;;;;;;;15.13;10.97;;;;;;;27.74;44.60;100723.56;5057462;28;20459;-48
2021/06/29 01:47:57;;;;;;;12.43;10.43;;;;;;;27.70;44.49;100713.09;5056399;28;20483;-48
2021/06/29 01:50:25;;;;;;;13.10;10.17;;;;;;;27.81;44.68;100707.47;5057978;28;20479;-47
2021/06/29 01:52:59;;;;;;;14.23;10.27;;;;;;;27.70;44.70;100702.50;5056364;28;20487;-49
2021/06/29 01:55:28;;;;;;;14.97;11.47;;;;;;;27.96;43.83;100698.16;5057266;28;20874;-46
2021/06/29 01:57:56;;;;;;;19.30;13.83;;;;;;;27.96;43.83;100698.16;5056145;28;20490;-44
2021/06/29 02:00:23;;;;;;;14.97;11.70;;;;;;;27.76;44.59;100708.50;5055570;28;20743;-45
2021/06/29 02:02:51;;;;;;;13.03;10.57;;;;;;;27.54;45.45;100710.91;5056113;28;20494;-47
2021/06/29 02:05:19;;;;;;;13.83;11.07;;;;;;;27.45;45.40;100708.50;5057289;28;20455;-46
2021/06/29 02:07:46;;;;;;;17.17;11.40;;;;;;;27.42;45.48;100713.91;5056002;28;20475;-43
2021/06/29 02:10:16;;;;;;;13.67;11.57;;;;;;;27.45;45.40;100708.50;5056165;28;20493;-45
2021/06/29 02:12:44;;;;;;;16.70;11.80;;;;;;;27.63;44.86;100708.00;5056090;28;20471;-44
2021/06/29 02:15:12;;;;;;;15.77;10.97;;;;;;;27.23;46.28;100698.56;5057459;28;20461;-44
2021/06/29 02:17:40;;;;;;;11.60;9.63;;;;;;;26.67;47.79;100694.78;5055693;28;20487;-45
2021/06/29 02:20:09;;;;;;;13.87;10.90;;;;;;;26.86;47.39;100699.56;5057200;28;20505;-46
2021/06/29 02:22:36;;;;;;;15.37;11.97;;;;;;;27.20;46.38;100690.69;5056199;28;20476;-43
2021/06/29 02:25:05;;;;;;;15.20;11.33;;;;;;;27.13;46.70;100686.50;5057072;28;20465;-44
2021/06/29 02:27:34;;;;;;;14.13;11.40;;;;;;;27.14;46.54;100683.81;5054826;28;20479;-44
2021/06/29 02:30:02;;;;;;;18.10;13.30;;;;;;;27.50;45.52;100685.41;5056719;28;20506;-47
2021/06/29 02:32:29;;;;;;;17.40;12.03;;;;;;;27.67;45.09;100686.72;5055413;28;20483;-45
2021/06/29 02:34:57;;;;;;;20.03;14.70;;;;;;;27.54;45.73;100684.41;5057055;28;20463;-44
2021/06/29 02:37:25;;;;;;;18.40;13.17;;;;;;;27.38;46.16;100684.00;5054522;28;20870;-46
2021/06/29 02:39:53;;;;;;;22.10;12.93;;;;;;;27.30;46.21;100683.34;5057033;28;20501;-44
2021/06/29 02:42:20;;;;;;;23.73;16.33;;;;;;;27.51;45.84;100681.84;5055471;28;20475;-44
2021/06/29 02:44:49;;;;;;;18.20;12.73;;;;;;;27.35;46.38;100690.28;5056866;28;20466;-46
2021/06/29 02:47:17;;;;;;;14.60;10.73;;;;;;;27.19;46.41;100686.31;5054873;28;20479;-46
2021/06/29 02:49:45;;;;;;;18.80;12.23;;;;;;;27.38;46.34;100689.31;5056603;28;20492;-45
2021/06/29 02:52:12;;;;;;;13.40;10.67;;;;;;;27.26;46.07;100687.88;5055028;28;20475;-44
2021/06/29 02:54:40;;;;;;;14.90;12.07;;;;;;;27.46;45.43;100678.47;5056808;28;20459;-44
2021/06/29 02:57:08;;;;;;;17.27;13.03;;;;;;;27.17;46.61;100677.56;5054730;28;20940;-47
2021/06/29 02:59:36;;;;;;;21.70;15.60;;;;;;;26.84;47.13;100667.84;5056249;28;20501;-45
2021/06/29 03:02:05;;;;;;;17.53;13.47;;;;;;;26.74;47.60;100666.34;5055019;28;20483;-48
2021/06/29 03:04:33;;;;;;;15.50;11.93;;;;;;;26.56;48.38;100661.53;5056179;28;20462;-47
2021/06/29 03:07:00;;;;;;;17.57;12.30;;;;;;;26.75;47.82;100668.13;5055184;28;20494;-46
2021/06/29 03:09:28;;;;;;;14.10;10.60;;;;;;;26.61;48.25;100657.91;5056043;28;20471;-45
2021/06/29 03:11:55;;;;;;;16.77;13.07;;;;;;;26.73;47.84;100665.50;5054802;28;20867;-45
2021/06/29 03:14:23;;;;;;;16.10;12.50;;;;;;;26.65;48.09;100662.19;5056253;28;20458;-45
2021/06/29 03:16:51;;;;;;;17.90;12.50;;;;;;;27.02;46.96;100668.28;5054471;28;20472;-43
2021/06/29 03:19:21;;;;;;;16.50;12.20;;;;;;;27.26;46.48;100665.84;5055230;28;20502;-45
2021/06/29 03:21:48;;;;;;;18.40;12.80;;;;;;;27.08;46.90;100663.66;5054856;28;20467;-43
2021/06/29 03:24:16;;;;;;;18.07;14.07;;;;;;;27.02;47.33;100655.91;5055905;28;20467;-46
2021/06/29 03:26:43;;;;;;;20.10;15.30;;;;;;;27.29;46.07;100653.38;5054066;28;20467;-46
2021/06/29 03:29:11;;;;;;;24.40;14.53;;;;;;;27.40;45.80;100662.75;5055722;28;20552;-46
2021/06/29 03:31:38;;;;;;;20.00;15.00;;;;;;;27.45;45.63;100660.84;5054235;28;20490;-44
2021/06/29 03:34:06;;;;;;;16.50;13.20;;;;;;;27.45;45.49;100660.84;5056121;28;20501;-44
2021/06/29 03:36:35;;;;;;;14.93;12.20;;;;;;;27.43;45.85;100665.31;5054156;28;20482;-45
2021/06/29 03:39:04;;;;;;;18.83;13.33;;;;;;;27.27;46.45;100668.41;5055474;28;20941;-46
2021/06/29 03:41:31;;;;;;;16.80;13.27;;;;;;;27.27;46.21;100679.00;5054374;28;20457;-45
2021/06/29 03:43:59;;;;;;;15.60;11.57;;;;;;;27.26;46.67;100681.72;5055454;28;20455;-44
2021/06/29 03:46:27;;;;;;;14.67;12.20;;;;;;;27.23;46.24;100688.81;5054410;28;20459;-44
2021/06/29 03:48:55;;;;;;;23.73;12.10;;;;;;;27.20;46.83;100691.59;5055329;28;20483;-43
2021/06/29 03:51:22;;;;;;;14.43;11.87;;;;;;;26.94;47.11;100698.50;5054099;28;20467;-47
2021/06/29 03:53:51;;;;;;;14.30;11.50;;;;;;;27.13;46.87;100697.97;5055155;28;20494;-46
2021/06/29 03:56:28;;;;;;;15.47;12.13;;;;;;;27.28;46.84;100696.63;5053951;28;20456;-45
2021/06/29 03:58:57;;;;;;;20.03;12.30;;;;;;;27.31;46.90;100699.22;5055013;28;20499;-47
2021/06/29 04:01:24;;;;;;;15.63;11.80;;;;;;;27.27;46.43;100694.91;5054629;28;20473;-45
2021/06/29 04:03:55;;;;;;;16.37;12.07;;;;;;;27.32;46.83;100703.59;5055031;28;20581;-43
2021/06/29 04:06:23;;;;;;;23.57;17.53;;;;;;;27.41;46.47;100697.16;5053800;28;20570;-43
2021/06/29 04:08:53;;;;;;;17.97;14.20;;;;;;;27.34;46.71;100691.16;5055009;28;20490;-45
2021/06/29 04:11:21;;;;;;;20.73;15.53;;;;;;;27.37;46.75;100690.19;5053921;28;20460;-44
2021/06/29 04:13:49;;;;;;;15.60;12.73;;;;;;;27.54;46.53;100694.13;5055202;28;20489;-44
2021/06/29 04:16:16;;;;;;;15.73;12.93;;;;;;;27.56;46.58;100692.28;5055040;28;20475;-46
2021/06/29 04:18:44;;;;;;;17.13;13.60;;;;;;;27.55;46.60;100698.50;5054448;28;20828;-44
2021/06/29 04:21:13;;;;;;;23.33;18.10;;;;;;;27.38;46.95;100701.66;5055162;28;20484;-44
2021/06/29 04:23:42;;;;;;;22.00;16.57;;;;;;;27.56;46.33;100697.59;5053526;28;20483;-45
2021/06/29 04:26:12;;;;;;;14.30;11.10;;;;;;;27.52;46.52;100702.13;5054654;28;20451;-47
2021/06/29 04:28:40;;;;;;;18.07;13.90;;;;;;;27.67;46.48;100707.91;5053391;28;20482;-46
2021/06/29 04:31:08;;;;;;;15.83;12.53;;;;;;;27.35;48.01;100700.84;5055395;28;20480;-45
2021/06/29 04:33:35;;;;;;;17.80;14.30;;;;;;;27.47;47.87;100698.72;5057639;28;20480;-46
2021/06/29 04:36:03;;;;;;;17.70;13.73;;;;;;;27.43;48.30;100710.34;5058742;28;20976;-47
2021/06/29 04:38:31;;;;;;;15.17;13.17;;;;;;;27.41;48.48;100706.88;5057699;28;20494;-44
2021/06/29 04:40:59;;;;;;;21.37;13.70;;;;;;;27.43;48.08;100705.91;5059207;28;20475;-48
2021/06/29 04:43:27;;;;;;;19.70;14.27;;;;;;;27.46;48.69;100699.66;5057543;28;20480;-47
2021/06/29 04:45:55;;;;;;;21.10;13.73;;;;;;;27.59;48.33;100701.03;5058721;28;20459;-44
2021/06/29 04:48:23;;;;;;;18.67;14.30;;;;;;;27.56;48.26;100695.81;5057480;28;20537;-45
2021/06/29 04:50:50;;;;;;;17.77;14.00;;;;;;;27.99;47.47;100698.09;5058775;28;20487;-46
2021/06/29 04:53:18;;;;;;;20.17;15.97;;;;;;;28.04;47.27;100689.03;5057443;28;20489;-45
2021/06/29 04:55:46;;;;;;;60.27;39.13;;;;;;;28.14;47.30;100691.41;5058621;28;20477;-45
2021/06/29 04:58:13;;;;;;;23.20;15.17;;;;;;;28.15;47.29;100690.50;5057449;28;20493;-44
2021/06/29 05:00:45;;;;;;;30.23;20.50;;;;;;;28.35;46.96;100689.81;5058738;28;20488;-49
2021/06/29 05:03:13;;;;;;;33.07;23.57;;;;;;;28.49;46.21;100685.88;5057220;28;20479;-46
2021/06/29 05:05:41;;;;;;;28.73;17.70;;;;;;;28.46;46.66;100686.84;5058077;28;20462;-45
2021/06/29 05:08:08;;;;;;;25.63;17.20;;;;;;;28.71;46.07;100683.31;5057258;28;20505;-49
2021/06/29 05:10:36;;;;;;;18.70;15.87;;;;;;;28.82;45.85;100688.22;5058576;28;20481;-45
2021/06/29 05:13:04;;;;;;;26.60;20.70;;;;;;;28.94;45.58;100686.94;5057132;28;20844;-46
2021/06/29 05:15:31;;;;;;;18.37;14.10;;;;;;;28.98;45.55;100691.22;5058081;28;20495;-48
2021/06/29 05:18:00;;;;;;;20.60;15.20;;;;;;;28.75;46.65;100686.72;5056639;28;20475;-44
2021/06/29 05:20:28;;;;;;;18.13;14.37;;;;;;;28.42;47.27;100695.81;5058202;28;20582;-43
2021/06/29 05:22:56;;;;;;;19.43;14.20;;;;;;;28.16;48.44;100701.03;5056868;28;20483;-47
2021/06/29 05:25:23;;;;;;;19.63;14.57;;;;;;;28.42;47.78;100702.00;5057982;28;20788;-47
2021/06/29 05:27:51;;;;;;;22.60;14.30;;;;;;;28.65;47.67;100702.13;5056795;28;20487;-44
2021/06/29 05:30:19;;;;;;;17.30;14.00;;;;;;;28.77;47.14;100698.16;5057940;28;20478;-44
2021/06/29 05:32:47;;;;;;;17.73;14.23;;;;;;;28.67;47.54;100700.25;5056742;28;20487;-43
2021/06/29 05:35:16;;;;;;;27.30;20.90;;;;;;;28.89;47.20;100696.84;5058041;28;20456;-43
2021/06/29 05:37:43;;;;;;;20.30;14.37;;;;;;;29.00;46.68;100693.84;5056255;28;20920;-44
2021/06/29 05:40:11;;;;;;;20.70;14.90;;;;;;;29.23;46.40;100695.63;5057956;28;20483;-45
2021/06/29 05:42:39;;;;;;;26.00;17.10;;;;;;;29.34;46.23;100695.22;5056007;28;20482;-45
2021/06/29 05:45:09;;;;;;;19.13;14.93;;;;;;;29.12;46.76;100701.34;5057826;28;20455;-44
2021/06/29 05:47:37;;;;;;;18.70;14.63;;;;;;;28.83;47.98;100705.88;5056075;28;20479;-43
2021/06/29 05:50:09;;;;;;;22.47;15.97;;;;;;;28.75;48.03;100703.50;5057834;28;20471;-45
2021/06/29 05:52:38;;;;;;;21.50;15.30;;;;;;;28.53;48.91;100701.63;5056508;28;20567;-43
2021/06/29 05:55:06;;;;;;;19.60;16.73;;;;;;;28.80;48.05;100698.91;5057750;28;20456;-43
2021/06/29 05:57:36;;;;;;;22.43;16.13;;;;;;;28.55;48.82;100704.22;5055564;28;20475;-46
2021/06/29 06:00:05;;;;;;;22.50;15.93;;;;;;;28.54;48.83;100711.31;5057621;28;20514;-43
2021/06/29 06:02:32;;;;;;;16.87;13.97;;;;;;;28.86;48.30;100700.50;5056041;28;20485;-43
2021/06/29 06:05:00;;;;;;;23.00;14.50;;;;;;;29.00;48.08;100707.13;5057596;28;20466;-45
2021/06/29 06:07:28;;;;;;;17.70;13.83;;;;;;;28.85;47.91;100714.66;5056199;28;20480;-45
2021/06/29 06:09:57;;;;;;;18.47;14.77;;;;;;;28.89;48.08;100710.13;5057294;28;20486;-43
2021/06/29 06:12:25;;;;;;;16.03;13.30;;;;;;;28.61;47.96;100703.97;5056163;28;20774;-43
2021/06/29 06:14:52;;;;;;;15.90;13.00;;;;;;;28.67;47.76;100709.06;5057377;28;21091;-46
2021/06/29 06:17:20;;;;;;;15.50;11.07;;;;;;;28.74;46.88;100708.84;5055703;28;20467;-44
2021/06/29 06:19:48;;;;;;;12.20;9.67;;;;;;;28.33;46.96;100712.91;5056717;28;20516;-46
2021/06/29 06:22:17;;;;;;;12.63;9.20;;;;;;;28.30;46.44;100705.06;5053656;28;20479;-46
2021/06/29 06:24:44;;;;;;;12.20;8.10;;;;;;;28.49;46.06;100710.59;5057153;28;20479;-43
2021/06/29 06:27:14;;;;;;;10.90;8.13;;;;;;;28.88;45.53;100701.31;5055657;28;20483;-43
2021/06/29 06:29:42;;;;;;;8.57;7.60;;;;;;;29.07;45.24;100703.31;5056874;28;20478;-48
2021/06/29 06:32:10;;;;;;;10.40;7.80;;;;;;;29.15;45.34;100711.84;5055653;28;20480;-45
2021/06/29 06:34:38;;;;;;;11.07;7.90;;;;;;;29.35;44.30;100708.44;5057028;28;20459;-43
2021/06/29 06:37:05;;;;;;;9.20;7.53;;;;;;;29.30;44.43;100704.22;5055109;28;20795;-46
2021/06/29 06:39:33;;;;;;;9.30;7.73;;;;;;;29.65;44.20;100696.72;5056698;28;20472;-45
2021/06/29 06:42:00;;;;;;;10.30;7.40;;;;;;;29.63;43.64;100695.91;5055506;28;20909;-47
2021/06/29 06:44:29;;;;;;;11.43;7.73;;;;;;;29.45;43.93;100687.69;5056790;28;20462;-45
2021/06/29 06:46:57;;;;;;;8.33;7.07;;;;;;;29.41;43.98;100694.06;5055003;28;20482;-47
2021/06/29 06:49:24;;;;;;;13.50;7.30;;;;;;;29.81;43.28;100693.44;5056514;28;20488;-46
2021/06/29 06:51:52;;;;;;;9.53;7.00;;;;;;;29.39;43.92;100690.59;5055055;28;20475;-43
2021/06/29 06:54:19;;;;;;;9.50;7.77;;;;;;;29.61;43.67;100687.13;5055802;28;20474;-44
2021/06/29 06:56:47;;;;;;;11.07;7.60;;;;;;;29.91;43.53;100678.84;5054927;28;20467;-45
2021/06/29 06:59:15;;;;;;;11.20;8.30;;;;;;;30.02;43.19;100686.38;5056397;28;20980;-44
2021/06/29 07:01:45;;;;;;;12.10;8.47;;;;;;;29.29;44.63;100697.19;5054703;28;20562;-44
2021/06/29 07:04:12;;;;;;;15.40;11.23;;;;;;;29.89;43.15;100686.88;5056465;28;20480;-44
2021/06/29 07:06:40;;;;;;;11.83;9.90;;;;;;;30.08;43.09;100685.28;5054641;28;20945;-47
2021/06/29 07:09:08;;;;;;;12.30;9.37;;;;;;;29.86;43.35;100691.47;5056390;28;20479;-46
2021/06/29 07:11:48;;;;;;;12.97;10.60;;;;;;;30.23;43.06;100689.97;5054899;28;20505;-43
2021/06/29 07:14:16;;;;;;;14.90;10.47;;;;;;;30.51;42.15;100696.78;5056151;28;20451;-46
2021/06/29 07:16:45;;;;;;;12.17;9.67;;;;;;;30.01;43.48;100690.84;5054476;28;20470;-46
2021/06/29 07:19:13;;;;;;;11.77;9.90;;;;;;;30.46;42.29;100682.81;5056313;28;20479;-47
2021/06/29 07:21:41;;;;;;;12.67;9.40;;;;;;;30.94;41.56;100690.50;5054312;28;20784;-47
2021/06/29 07:24:08;;;;;;;18.67;11.17;;;;;;;30.39;42.39;100700.81;5055559;28;20463;-47
2021/06/29 07:26:36;;;;;;;13.37;10.73;;;;;;;30.51;42.53;100699.44;5054454;28;20469;-46
2021/06/29 07:29:05;;;;;;;13.73;10.93;;;;;;;30.74;41.87;100688.75;5055704;28;20540;-46
2021/06/29 07:31:32;;;;;;;16.33;12.47;;;;;;;30.38;42.64;100695.56;5054663;28;20452;-47
2021/06/29 07:34:02;;;;;;;15.53;12.30;;;;;;;29.95;43.59;100707.06;5055856;28;20490;-43
2021/06/29 07:36:29;;;;;;;19.90;15.47;;;;;;;30.38;43.08;100703.53;5054189;28;20476;-47
2021/06/29 07:38:57;;;;;;;17.83;14.00;;;;;;;30.75;42.28;100699.31;5055522;28;20459;-44
2021/06/29 07:41:25;;;;;;;16.80;12.80;;;;;;;30.76;42.79;100698.38;5054348;28;20484;-45
2021/06/29 07:43:53;;;;;;;15.80;10.80;;;;;;;30.87;42.78;100695.25;5055541;28;20556;-45
2021/06/29 07:46:22;;;;;;;14.87;12.23;;;;;;;31.15;41.97;100699.31;5054199;28;20881;-47
2021/06/29 07:48:49;;;;;;;17.77;13.37;;;;;;;31.09;41.73;100700.47;5055417;28;20796;-47
2021/06/29 07:51:19;;;;;;;21.20;12.77;;;;;;;30.53;43.10;100691.38;5054558;28;20456;-46
2021/06/29 07:53:47;;;;;;;16.90;11.67;;;;;;;30.91;42.67;100696.00;5055076;28;20487;-45
2021/06/29 07:56:15;;;;;;;14.30;11.67;;;;;;;31.45;41.57;100684.66;5055087;28;20456;-45
2021/06/29 07:58:43;;;;;;;15.57;11.40;;;;;;;31.55;41.44;100685.97;5055071;28;20468;-48
2021/06/29 08:01:12;;;;;;;13.67;11.40;;;;;;;32.02;40.76;100691.72;5055196;28;20476;-47
2021/06/29 08:03:40;;;;;;;19.70;15.63;;;;;;;32.13;40.21;100680.53;5054143;28;20566;-43
2021/06/29 08:06:08;;;;;;;15.50;13.33;;;;;;;31.98;40.27;100683.03;5054954;28;20916;-46
2021/06/29 08:08:38;;;;;;;16.90;12.40;;;;;;;31.76;41.31;100684.06;5054418;28;20543;-46
2021/06/29 08:11:07;;;;;;;15.83;12.07;;;;;;;31.58;41.11;100675.13;5055101;28;20954;-48
2021/06/29 08:13:37;;;;;;;17.23;12.10;;;;;;;31.82;41.11;100672.22;5053664;28;20559;-44
2021/06/29 08:16:07;;;;;;;18.03;13.10;;;;;;;32.14;39.78;100667.09;5054906;28;20487;-45
2021/06/29 08:18:34;;;;;;;20.17;14.70;;;;;;;32.06;39.70;100672.84;5053805;28;20480;-43
2021/06/29 08:21:03;;;;;;;15.20;11.87;;;;;;;32.06;39.42;100674.66;5054663;28;20487;-45
2021/06/29 08:23:31;;;;;;;18.27;12.70;;;;;;;31.85;39.82;100676.56;5053490;28;20484;-49
2021/06/29 08:26:01;;;;;;;17.00;13.07;;;;;;;31.92;39.03;100678.88;5054731;28;20915;-48
2021/06/29 08:28:33;;;;;;;19.87;11.97;;;;;;;31.99;38.32;100683.91;5053827;28;20489;-46
2021/06/29 08:31:01;;;;;;;16.30;13.60;;;;;;;32.04;39.11;100677.38;5054982;28;20479;-45
2021/06/29 08:33:32;;;;;;;15.00;12.80;;;;;;;32.06;39.42;100685.31;5053622;28;20478;-47
2021/06/29 08:36:01;;;;;;;21.60;14.70;;;;;;;31.97;39.73;100681.31;5054456;28;20466;-47
2021/06/29 08:38:29;;;;;;;44.57;34.53;;;;;;;31.98;39.90;100680.34;5053227;28;20475;-44
2021/06/29 08:40:56;;;;;;;15.47;10.60;;;;;;;31.71;40.14;100679.88;5054774;28;20928;-49
2021/06/29 08:43:25;;;;;;;21.80;12.70;;;;;;;31.86;39.72;100676.50;5053480;28;20774;-45
2021/06/29 08:45:55;;;;;;;14.37;11.20;;;;;;;32.32;39.41;100672.44;5054601;28;20466;-45
2021/06/29 08:48:23;;;;;;;12.97;10.43;;;;;;;32.57;38.85;100673.88;5053505;28;20895;-46
2021/06/29 08:50:51;;;;;;;13.40;11.13;;;;;;;32.72;39.03;100681.06;5054783;28;20479;-48
2021/06/29 08:53:18;;;;;;;11.40;9.53;;;;;;;32.19;39.38;100681.09;5053411;28;20483;-46
2021/06/29 08:55:47;;;;;;;13.93;8.90;;;;;;;32.08;39.52;100678.09;5054349;28;20459;-46
2021/06/29 08:58:20;;;;;;;15.60;11.17;;;;;;;32.07;38.86;100671.03;5053389;28;20792;-46
2021/06/29 09:00:50;;;;;;;12.30;9.53;;;;;;;32.45;39.03;100667.38;5054577;28;20507;-44
2021/06/29 09:03:18;;;;;;;16.47;13.60;;;;;;;32.06;38.95;100670.19;5053327;28;20879;-46
2021/06/29 09:05:47;;;;;;;11.57;9.30;;;;;;;31.80;39.29;100663.44;5054459;28;20788;-44
2021/06/29 09:08:17;;;;;;;32.97;23.77;;;;;;;32.05;39.07;100664.91;5053375;28;20486;-47
2021/06/29 09:11:06;;;;;;;13.83;11.27;;;;;;;32.43;38.73;100662.13;5054951;28;20567;-47
2021/06/29 09:13:33;;;;;;;16.60;12.10;;;;;;;32.20;39.09;100664.13;5053167;28;20498;-43
2021/06/29 09:16:04;;;;;;;15.17;12.30;;;;;;;31.84;39.37;100665.06;5054499;28;20777;-45
2021/06/29 09:18:34;;;;;;;12.83;11.27;;;;;;;31.93;39.56;100669.06;5055810;28;20947;-44
2021/06/29 09:21:05;;;;;;;15.40;11.40;;;;;;;31.85;39.76;100671.25;5058188;28;20482;-43
2021/06/29 09:23:35;;;;;;;16.27;10.73;;;;;;;31.94;39.25;100668.13;5056936;28;20485;-44
2021/06/29 09:26:09;;;;;;;18.63;14.40;;;;;;;31.78;39.86;100660.84;5057610;28;20977;-47
2021/06/29 09:28:38;;;;;;;13.67;10.70;;;;;;;31.87;39.52;100664.03;5056743;28;20486;-45
2021/06/29 09:31:09;;;;;;;21.50;17.37;;;;;;;31.68;39.78;100669.38;5058048;28;20479;-43
2021/06/29 09:33:38;;;;;;;11.83;10.37;;;;;;;31.74;39.89;100682.41;5056633;28;20493;-48
2021/06/29 09:36:08;;;;;;;16.57;13.23;;;;;;;31.77;39.85;100680.47;5057810;28;20470;-45
2021/06/29 09:38:37;;;;;;;12.50;10.40;;;;;;;31.74;39.63;100674.41;5056678;28;20490;-49
2021/06/29 09:41:07;;;;;;;12.97;10.07;;;;;;;31.99;39.15;100673.22;5057696;28;20479;-46
2021/06/29 09:43:37;;;;;;;15.10;11.73;;;;;;;31.45;39.71;100674.88;5056457;28;20573;-46
2021/06/29 09:46:08;;;;;;;14.63;9.80;;;;;;;31.71;39.65;100674.53;5057685;28;20475;-45
2021/06/29 09:48:41;;;;;;;12.50;9.27;;;;;;;32.59;38.01;100671.97;5056441;28;20482;-47
2021/06/29 09:51:15;;;;;;;13.83;9.83;;;;;;;32.63;37.55;100678.91;5057619;28;20501;-44
2021/06/29 09:53:43;;;;;;;13.23;10.13;;;;;;;32.02;38.39;100679.28;5057269;28;20459;-46
2021/06/29 09:56:13;;;;;;;12.80;10.27;;;;;;;32.08;38.65;100675.41;5057582;28;20456;-47
2021/06/29 09:58:42;;;;;;;17.27;10.87;;;;;;;32.10;38.70;100675.34;5056119;28;20468;-47
2021/06/29 10:01:15;;;;;;;14.57;10.40;;;;;;;32.00;39.34;100685.63;5057573;28;20460;-46
2021/06/29 10:03:43;;;;;;;13.60;10.90;;;;;;;32.11;38.67;100682.41;5057050;28;20462;-43
2021/06/29 10:06:13;;;;;;;14.13;10.10;;;;;;;32.11;39.06;100680.63;5057397;28;20456;-45
2021/06/29 10:08:42;;;;;;;12.57;9.27;;;;;;;31.67;40.71;100684.50;5056027;28;20478;-47
2021/06/29 10:11:14;;;;;;;12.60;10.47;;;;;;;31.60;40.13;100678.63;5057382;28;20486;-47
2021/06/29 10:13:44;;;;;;;13.37;9.37;;;;;;;31.49;40.21;100683.59;5056497;28;20466;-43
2021/06/29 10:16:14;;;;;;;10.97;9.13;;;;;;;31.50;40.35;100682.66;5057235;28;20455;-45
2021/06/29 10:18:50;;;;;;;12.17;10.27;;;;;;;31.28;41.16;100688.13;5056876;28;20935;-46
2021/06/29 10:21:24;;;;;;;17.23;10.43;;;;;;;31.63;40.40;100686.44;5056301;28;20466;-46
2021/06/29 10:23:54;;;;;;;13.53;10.63;;;;;;;31.58;40.97;100688.47;5056733;28;20495;-47
2021/06/29 10:26:22;;;;;;;11.17;9.80;;;;;;;31.54;40.92;100684.25;5055533;28;20547;-46
2021/06/29 10:28:52;;;;;;;12.93;9.70;;;;;;;31.47;41.04;100688.16;5055739;28;20487;-46
2021/06/29 10:31:23;;;;;;;18.77;10.93;;;;;;;31.44;41.30;100682.94;5055049;28;20927;-45
2021/06/29 10:33:52;;;;;;;15.03;11.70;;;;;;;31.43;41.77;100683.88;5056646;28;20578;-46
2021/06/29 10:36:21;;;;;;;16.00;9.27;;;;;;;31.66;41.17;100683.66;5055489;28;20904;-50
2021/06/29 10:38:50;;;;;;;14.47;10.13;;;;;;;31.65;40.30;100676.59;5056615;28;20484;-46
2021/06/29 10:41:21;;;;;;;13.10;8.87;;;;;;;31.15;41.93;100674.50;5055691;28;20466;-45
2021/06/29 10:43:49;;;;;;;12.60;9.60;;;;;;;31.31;40.43;100670.19;5056571;28;20495;-45
2021/06/29 10:46:40;;;;;;;12.03;9.20;;;;;;;31.36;40.04;100670.84;5055481;28;20744;-44
2021/06/29 10:49:28;;;;;;;10.23;8.10;;;;;;;31.42;39.67;100659.03;5056537;28;20484;-47
2021/06/29 10:51:57;;;;;;;13.53;8.70;;;;;;;31.51;39.97;100658.59;5055288;28;20475;-44
2021/06/29 10:54:42;;;;;;;9.40;7.57;;;;;;;31.75;38.66;100646.81;5056618;28;20911;-47
2021/06/29 10:57:12;;;;;;;11.97;9.73;;;;;;;32.00;38.27;100650.94;5054905;28;20472;-47
2021/06/29 10:59:42;;;;;;;11.47;8.73;;;;;;;31.20;40.02;100648.50;5056217;28;20490;-46
2021/06/29 11:02:33;;;;;;;20.40;12.03;;;;;;;31.39;40.33;100648.53;5055190;28;20487;-47
2021/06/29 11:05:02;;;;;;;11.00;7.53;;;;;;;31.40;41.11;100658.25;5056519;28;20498;-47
2021/06/29 11:07:45;;;;;;;10.53;8.37;;;;;;;31.02;41.95;100656.44;5054731;28;20488;-46
2021/06/29 11:10:15;;;;;;;12.33;8.90;;;;;;;31.25;42.22;100647.34;5056421;28;20482;-46
2021/06/29 11:12:52;;;;;;;12.83;8.77;;;;;;;31.84;40.15;100635.72;5054746;28;20948;-49
2021/06/29 11:15:20;;;;;;;13.37;10.40;;;;;;;31.38;41.54;100636.16;5056251;28;20892;-45
2021/06/29 11:17:59;;;;;;;10.57;8.20;;;;;;;31.46;39.99;100633.97;5054542;28;20498;-44
2021/06/29 11:20:27;;;;;;;17.67;12.40;;;;;;;31.79;40.44;100632.41;5055963;28;20558;-43
2021/06/29 11:23:00;;;;;;;16.60;10.87;;;;;;;31.66;41.37;100625.00;5054429;28;20483;-49